sensor_id;sensor_type;location;lat;lon;timestamp;temperature;humidity
24614;DHT22;12760;46.296;25.290;2023-02-11T00:02:22;-6.40;99.70
24614;DHT22;12760;46.296;25.290;2023-02-11T00:04:48;-6.40;99.60
24614;DHT22;12760;46.296;25.290;2023-02-11T00:07:13;-6.40;99.80
24614;DHT22;12760;46.296;25.290;2023-02-11T00:09:39;-6.40;99.70
24614;DHT22;12760;46.296;25.290;2023-02-11T00:12:05;-6.40;99.60
24614;DHT22;12760;46.296;25.290;2023-02-11T00:14:30;-6.50;99.50
24614;DHT22;12760;46.296;25.290;2023-02-11T00:16:56;-6.50;99.70
24614;DHT22;12760;46.296;25.290;2023-02-11T00:19:22;-6.50;99.70
24614;DHT22;12760;46.296;25.290;2023-02-11T00:21:47;-6.60;99.60
24614;DHT22;12760;46.296;25.290;2023-02-11T00:24:13;-6.60;99.60
24614;DHT22;12760;46.296;25.290;2023-02-11T00:26:39;-6.60;99.90
24614;DHT22;12760;46.296;25.290;2023-02-11T00:29:04;-6.50;99.80
24614;DHT22;12760;46.296;25.290;2023-02-11T00:31:30;-6.50;99.70
24614;DHT22;12760;46.296;25.290;2023-02-11T00:33:56;-6.50;99.40
24614;DHT22;12760;46.296;25.290;2023-02-11T00:36:24;-6.40;99.70
24614;DHT22;12760;46.296;25.290;2023-02-11T00:38:51;-6.60;99.30
24614;DHT22;12760;46.296;25.290;2023-02-11T00:41:19;-6.60;99.60
24614;DHT22;12760;46.296;25.290;2023-02-11T00:43:45;-6.60;99.60
24614;DHT22;12760;46.296;25.290;2023-02-11T00:46:11;-6.70;99.30
24614;DHT22;12760;46.296;25.290;2023-02-11T00:48:37;-6.90;99.50
24614;DHT22;12760;46.296;25.290;2023-02-11T00:51:03;-6.80;99.80
24614;DHT22;12760;46.296;25.290;2023-02-11T00:53:30;-6.80;99.70
24614;DHT22;12760;46.296;25.290;2023-02-11T00:55:55;-6.80;99.30
24614;DHT22;12760;46.296;25.290;2023-02-11T00:58:21;-6.90;99.30
24614;DHT22;12760;46.296;25.290;2023-02-11T01:00:47;-6.70;99.50
24614;DHT22;12760;46.296;25.290;2023-02-11T01:03:13;-6.70;99.50
24614;DHT22;12760;46.296;25.290;2023-02-11T01:05:38;-6.80;99.30
24614;DHT22;12760;46.296;25.290;2023-02-11T01:08:04;-6.80;99.40
24614;DHT22;12760;46.296;25.290;2023-02-11T01:10:30;-6.80;99.10
24614;DHT22;12760;46.296;25.290;2023-02-11T01:12:56;-7.00;98.50
24614;DHT22;12760;46.296;25.290;2023-02-11T01:15:22;-6.90;98.70
24614;DHT22;12760;46.296;25.290;2023-02-11T01:17:48;-7.10;98.50
24614;DHT22;12760;46.296;25.290;2023-02-11T01:20:17;-7.10;98.90
24614;DHT22;12760;46.296;25.290;2023-02-11T01:22:43;-7.10;98.30
24614;DHT22;12760;46.296;25.290;2023-02-11T01:25:08;-7.20;98.10
24614;DHT22;12760;46.296;25.290;2023-02-11T01:27:34;-7.20;98.30
24614;DHT22;12760;46.296;25.290;2023-02-11T01:30:01;-7.20;98.30
24614;DHT22;12760;46.296;25.290;2023-02-11T01:32:27;-7.30;98.40
24614;DHT22;12760;46.296;25.290;2023-02-11T01:34:52;-7.30;98.30
24614;DHT22;12760;46.296;25.290;2023-02-11T01:37:18;-7.40;98.20
24614;DHT22;12760;46.296;25.290;2023-02-11T01:39:44;-7.40;98.20
24614;DHT22;12760;46.296;25.290;2023-02-11T01:42:16;-7.40;98.30
24614;DHT22;12760;46.296;25.290;2023-02-11T01:44:41;-7.40;98.80
24614;DHT22;12760;46.296;25.290;2023-02-11T01:47:08;-7.40;99.00
24614;DHT22;12760;46.296;25.290;2023-02-11T01:49:37;-7.40;98.70
24614;DHT22;12760;46.296;25.290;2023-02-11T01:52:17;-7.40;98.90
24614;DHT22;12760;46.296;25.290;2023-02-11T01:54:58;-7.30;98.90
24614;DHT22;12760;46.296;25.290;2023-02-11T01:57:46;-7.30;98.80
24614;DHT22;12760;46.296;25.290;2023-02-11T02:03:15;-7.30;98.80
24614;DHT22;12760;46.296;25.290;2023-02-11T02:06:02;-7.30;98.90
24614;DHT22;12760;46.296;25.290;2023-02-11T02:08:55;-7.40;98.70
24614;DHT22;12760;46.296;25.290;2023-02-11T02:11:18;-7.40;99.20
24614;DHT22;12760;46.296;25.290;2023-02-11T02:13:45;-7.40;99.30
24614;DHT22;12760;46.296;25.290;2023-02-11T02:16:13;-7.30;98.90
24614;DHT22;12760;46.296;25.290;2023-02-11T02:24:44;-7.50;99.10
24614;DHT22;12760;46.296;25.290;2023-02-11T02:38:07;-7.60;98.50
24614;DHT22;12760;46.296;25.290;2023-02-11T02:40:42;-7.60;98.40
24614;DHT22;12760;46.296;25.290;2023-02-11T02:43:09;-7.60;98.30
24614;DHT22;12760;46.296;25.290;2023-02-11T02:45:36;-7.60;98.30
24614;DHT22;12760;46.296;25.290;2023-02-11T02:48:01;-7.70;98.10
24614;DHT22;12760;46.296;25.290;2023-02-11T02:50:31;-7.80;97.90
24614;DHT22;12760;46.296;25.290;2023-02-11T02:53:18;-8.10;97.60
24614;DHT22;12760;46.296;25.290;2023-02-11T02:58:47;-8.60;97.50
24614;DHT22;12760;46.296;25.290;2023-02-11T03:01:44;-8.60;98.10
24614;DHT22;12760;46.296;25.290;2023-02-11T03:04:20;-8.50;98.30
24614;DHT22;12760;46.296;25.290;2023-02-11T03:07:06;-8.50;98.30
24614;DHT22;12760;46.296;25.290;2023-02-11T03:12:21;-8.40;98.20
24614;DHT22;12760;46.296;25.290;2023-02-11T03:14:50;-8.40;98.50
24614;DHT22;12760;46.296;25.290;2023-02-11T03:17:16;-8.40;98.40
24614;DHT22;12760;46.296;25.290;2023-02-11T03:19:45;-8.30;98.30
24614;DHT22;12760;46.296;25.290;2023-02-11T03:22:21;-8.30;97.80
24614;DHT22;12760;46.296;25.290;2023-02-11T03:24:49;-8.30;98.00
24614;DHT22;12760;46.296;25.290;2023-02-11T03:30:25;-8.20;98.20
24614;DHT22;12760;46.296;25.290;2023-02-11T03:32:59;-8.20;98.10
24614;DHT22;12760;46.296;25.290;2023-02-11T03:35:28;-8.20;98.20
24614;DHT22;12760;46.296;25.290;2023-02-11T03:38:01;-8.10;98.40
24614;DHT22;12760;46.296;25.290;2023-02-11T03:40:36;-8.10;98.40
24614;DHT22;12760;46.296;25.290;2023-02-11T03:43:30;-8.00;98.50
24614;DHT22;12760;46.296;25.290;2023-02-11T03:45:58;-8.00;98.40
24614;DHT22;12760;46.296;25.290;2023-02-11T03:48:31;-8.00;98.60
24614;DHT22;12760;46.296;25.290;2023-02-11T03:50:58;-8.00;98.50
24614;DHT22;12760;46.296;25.290;2023-02-11T03:53:25;-8.10;98.60
24614;DHT22;12760;46.296;25.290;2023-02-11T03:55:53;-8.10;98.70
24614;DHT22;12760;46.296;25.290;2023-02-11T03:58:19;-8.00;98.90
24614;DHT22;12760;46.296;25.290;2023-02-11T04:00:45;-8.00;98.80
24614;DHT22;12760;46.296;25.290;2023-02-11T04:03:11;-8.10;98.70
24614;DHT22;12760;46.296;25.290;2023-02-11T04:05:37;-8.10;98.90
24614;DHT22;12760;46.296;25.290;2023-02-11T04:08:04;-8.10;98.80
24614;DHT22;12760;46.296;25.290;2023-02-11T04:10:30;-8.00;98.80
24614;DHT22;12760;46.296;25.290;2023-02-11T04:12:56;-8.00;98.90
24614;DHT22;12760;46.296;25.290;2023-02-11T04:15:22;-8.00;98.70
24614;DHT22;12760;46.296;25.290;2023-02-11T04:17:48;-8.00;98.80
24614;DHT22;12760;46.296;25.290;2023-02-11T04:20:14;-8.00;99.10
24614;DHT22;12760;46.296;25.290;2023-02-11T04:22:39;-8.00;98.90
24614;DHT22;12760;46.296;25.290;2023-02-11T04:25:06;-8.00;98.90
24614;DHT22;12760;46.296;25.290;2023-02-11T04:27:32;-8.00;98.90
24614;DHT22;12760;46.296;25.290;2023-02-11T04:29:57;-8.00;99.00
24614;DHT22;12760;46.296;25.290;2023-02-11T04:32:23;-8.00;98.80
24614;DHT22;12760;46.296;25.290;2023-02-11T04:34:49;-8.00;98.40
24614;DHT22;12760;46.296;25.290;2023-02-11T04:37:15;-8.10;97.90
24614;DHT22;12760;46.296;25.290;2023-02-11T04:39:40;-8.10;98.20
24614;DHT22;12760;46.296;25.290;2023-02-11T04:42:06;-8.20;97.80
24614;DHT22;12760;46.296;25.290;2023-02-11T04:44:32;-8.30;97.50
24614;DHT22;12760;46.296;25.290;2023-02-11T04:46:58;-8.30;97.30
24614;DHT22;12760;46.296;25.290;2023-02-11T04:49:24;-8.50;97.30
24614;DHT22;12760;46.296;25.290;2023-02-11T04:51:50;-8.50;97.30
24614;DHT22;12760;46.296;25.290;2023-02-11T04:54:15;-8.50;97.50
24614;DHT22;12760;46.296;25.290;2023-02-11T04:56:41;-8.60;97.60
24614;DHT22;12760;46.296;25.290;2023-02-11T04:59:07;-8.60;97.50
24614;DHT22;12760;46.296;25.290;2023-02-11T05:01:33;-8.60;97.50
24614;DHT22;12760;46.296;25.290;2023-02-11T05:03:59;-8.80;97.20
24614;DHT22;12760;46.296;25.290;2023-02-11T05:06:24;-8.80;97.60
24614;DHT22;12760;46.296;25.290;2023-02-11T05:08:50;-8.80;97.60
24614;DHT22;12760;46.296;25.290;2023-02-11T05:11:21;-8.80;97.50
24614;DHT22;12760;46.296;25.290;2023-02-11T05:13:47;-8.80;97.50
24614;DHT22;12760;46.296;25.290;2023-02-11T05:16:14;-8.90;97.30
24614;DHT22;12760;46.296;25.290;2023-02-11T05:18:41;-8.90;97.30
24614;DHT22;12760;46.296;25.290;2023-02-11T05:21:09;-9.00;97.40
24614;DHT22;12760;46.296;25.290;2023-02-11T05:23:35;-9.10;97.30
24614;DHT22;12760;46.296;25.290;2023-02-11T05:26:02;-9.00;97.40
24614;DHT22;12760;46.296;25.290;2023-02-11T05:28:28;-9.00;97.50
24614;DHT22;12760;46.296;25.290;2023-02-11T05:30:54;-9.10;97.50
24614;DHT22;12760;46.296;25.290;2023-02-11T05:33:20;-9.10;97.60
24614;DHT22;12760;46.296;25.290;2023-02-11T05:35:46;-9.10;97.50
24614;DHT22;12760;46.296;25.290;2023-02-11T05:38:12;-9.10;97.50
24614;DHT22;12760;46.296;25.290;2023-02-11T05:40:37;-9.10;97.40
24614;DHT22;12760;46.296;25.290;2023-02-11T05:43:03;-9.10;97.50
24614;DHT22;12760;46.296;25.290;2023-02-11T05:45:29;-9.10;97.70
24614;DHT22;12760;46.296;25.290;2023-02-11T05:47:54;-9.10;97.70
24614;DHT22;12760;46.296;25.290;2023-02-11T05:50:20;-9.10;97.50
24614;DHT22;12760;46.296;25.290;2023-02-11T05:52:46;-9.10;97.60
24614;DHT22;12760;46.296;25.290;2023-02-11T05:55:12;-9.10;97.50
24614;DHT22;12760;46.296;25.290;2023-02-11T05:57:38;-9.10;97.60
24614;DHT22;12760;46.296;25.290;2023-02-11T06:00:04;-9.10;97.60
24614;DHT22;12760;46.296;25.290;2023-02-11T06:02:30;-9.10;97.70
24614;DHT22;12760;46.296;25.290;2023-02-11T06:04:56;-9.00;97.80
24614;DHT22;12760;46.296;25.290;2023-02-11T06:07:22;-9.00;97.70
24614;DHT22;12760;46.296;25.290;2023-02-11T06:09:47;-9.00;97.80
24614;DHT22;12760;46.296;25.290;2023-02-11T06:12:13;-8.90;97.90
24614;DHT22;12760;46.296;25.290;2023-02-11T06:14:39;-8.90;97.90
24614;DHT22;12760;46.296;25.290;2023-02-11T06:17:04;-8.80;97.80
24614;DHT22;12760;46.296;25.290;2023-02-11T06:19:30;-8.80;97.90
24614;DHT22;12760;46.296;25.290;2023-02-11T06:21:56;-8.70;98.10
24614;DHT22;12760;46.296;25.290;2023-02-11T06:24:23;-8.70;98.00
24614;DHT22;12760;46.296;25.290;2023-02-11T06:26:48;-8.70;98.00
24614;DHT22;12760;46.296;25.290;2023-02-11T06:29:15;-8.70;97.60
24614;DHT22;12760;46.296;25.290;2023-02-11T06:31:40;-8.70;97.60
24614;DHT22;12760;46.296;25.290;2023-02-11T06:34:09;-8.80;97.50
24614;DHT22;12760;46.296;25.290;2023-02-11T06:36:35;-8.80;97.60
24614;DHT22;12760;46.296;25.290;2023-02-11T06:39:03;-8.80;97.50
24614;DHT22;12760;46.296;25.290;2023-02-11T06:41:29;-8.80;97.70
24614;DHT22;12760;46.296;25.290;2023-02-11T06:43:55;-8.80;97.70
24614;DHT22;12760;46.296;25.290;2023-02-11T06:46:21;-8.70;97.80
24614;DHT22;12760;46.296;25.290;2023-02-11T06:48:46;-8.70;97.80
24614;DHT22;12760;46.296;25.290;2023-02-11T06:51:13;-8.70;97.70
24614;DHT22;12760;46.296;25.290;2023-02-11T06:53:42;-8.60;98.00
24614;DHT22;12760;46.296;25.290;2023-02-11T06:56:11;-8.50;98.20
24614;DHT22;12760;46.296;25.290;2023-02-11T06:58:37;-8.40;98.20
24614;DHT22;12760;46.296;25.290;2023-02-11T07:01:04;-8.30;98.50
24614;DHT22;12760;46.296;25.290;2023-02-11T07:03:35;-8.10;98.60
24614;DHT22;12760;46.296;25.290;2023-02-11T07:06:02;-8.10;98.50
24614;DHT22;12760;46.296;25.290;2023-02-11T07:08:28;-8.00;98.80
24614;DHT22;12760;46.296;25.290;2023-02-11T07:10:53;-7.80;99.00
24614;DHT22;12760;46.296;25.290;2023-02-11T07:13:19;-7.70;98.90
24614;DHT22;12760;46.296;25.290;2023-02-11T07:15:45;-7.60;98.90
24614;DHT22;12760;46.296;25.290;2023-02-11T07:18:10;-7.50;98.60
24614;DHT22;12760;46.296;25.290;2023-02-11T07:20:37;-7.40;98.70
24614;DHT22;12760;46.296;25.290;2023-02-11T07:23:06;-7.30;98.70
24614;DHT22;12760;46.296;25.290;2023-02-11T07:25:31;-7.10;98.80
24614;DHT22;12760;46.296;25.290;2023-02-11T07:27:57;-7.00;98.90
24614;DHT22;12760;46.296;25.290;2023-02-11T07:30:23;-6.80;98.70
24614;DHT22;12760;46.296;25.290;2023-02-11T07:32:48;-6.60;98.30
24614;DHT22;12760;46.296;25.290;2023-02-11T07:35:14;-6.60;98.10
24614;DHT22;12760;46.296;25.290;2023-02-11T07:37:40;-6.50;98.20
24614;DHT22;12760;46.296;25.290;2023-02-11T07:40:08;-6.40;98.00
24614;DHT22;12760;46.296;25.290;2023-02-11T07:42:34;-6.20;98.00
24614;DHT22;12760;46.296;25.290;2023-02-11T07:45:00;-5.90;98.40
24614;DHT22;12760;46.296;25.290;2023-02-11T07:47:26;-5.90;97.90
24614;DHT22;12760;46.296;25.290;2023-02-11T07:49:52;-5.80;97.50
24614;DHT22;12760;46.296;25.290;2023-02-11T07:52:18;-5.70;97.40
24614;DHT22;12760;46.296;25.290;2023-02-11T07:54:44;-5.50;97.60
24614;DHT22;12760;46.296;25.290;2023-02-11T07:57:10;-5.50;97.60
24614;DHT22;12760;46.296;25.290;2023-02-11T07:59:36;-5.30;97.90
24614;DHT22;12760;46.296;25.290;2023-02-11T08:02:01;-5.00;97.90
24614;DHT22;12760;46.296;25.290;2023-02-11T08:04:27;-5.00;97.00
24614;DHT22;12760;46.296;25.290;2023-02-11T08:06:53;-5.00;97.10
24614;DHT22;12760;46.296;25.290;2023-02-11T08:09:21;-4.80;97.90
24614;DHT22;12760;46.296;25.290;2023-02-11T08:11:47;-4.70;97.20
24614;DHT22;12760;46.296;25.290;2023-02-11T08:14:13;-4.70;97.50
24614;DHT22;12760;46.296;25.290;2023-02-11T08:16:39;-4.60;97.40
24614;DHT22;12760;46.296;25.290;2023-02-11T08:19:07;-4.70;97.40
24614;DHT22;12760;46.296;25.290;2023-02-11T08:21:34;-4.60;97.50
24614;DHT22;12760;46.296;25.290;2023-02-11T08:24:01;-4.40;97.70
24614;DHT22;12760;46.296;25.290;2023-02-11T08:26:29;-4.20;97.60
24614;DHT22;12760;46.296;25.290;2023-02-11T08:28:57;-4.10;97.50
24614;DHT22;12760;46.296;25.290;2023-02-11T08:31:25;-4.00;97.00
24614;DHT22;12760;46.296;25.290;2023-02-11T08:33:51;-4.20;96.90
24614;DHT22;12760;46.296;25.290;2023-02-11T08:36:22;-4.20;96.90
24614;DHT22;12760;46.296;25.290;2023-02-11T08:38:48;-4.10;97.30
24614;DHT22;12760;46.296;25.290;2023-02-11T08:41:14;-4.00;97.40
24614;DHT22;12760;46.296;25.290;2023-02-11T08:43:40;-3.90;97.60
24614;DHT22;12760;46.296;25.290;2023-02-11T08:46:08;-3.60;97.40
24614;DHT22;12760;46.296;25.290;2023-02-11T08:48:33;-3.60;97.20
24614;DHT22;12760;46.296;25.290;2023-02-11T08:50:59;-3.40;97.30
24614;DHT22;12760;46.296;25.290;2023-02-11T08:53:29;-3.30;97.20
24614;DHT22;12760;46.296;25.290;2023-02-11T08:55:55;-3.20;96.90
24614;DHT22;12760;46.296;25.290;2023-02-11T08:58:21;-3.30;96.90
24614;DHT22;12760;46.296;25.290;2023-02-11T09:00:47;-3.00;97.40
24614;DHT22;12760;46.296;25.290;2023-02-11T09:03:14;-3.10;96.80
24614;DHT22;12760;46.296;25.290;2023-02-11T09:05:48;-2.90;97.20
24614;DHT22;12760;46.296;25.290;2023-02-11T09:08:22;-2.70;97.00
24614;DHT22;12760;46.296;25.290;2023-02-11T09:10:47;-2.60;96.70
24614;DHT22;12760;46.296;25.290;2023-02-11T09:13:13;-2.50;96.90
24614;DHT22;12760;46.296;25.290;2023-02-11T09:15:39;-2.50;96.50
24614;DHT22;12760;46.296;25.290;2023-02-11T09:18:05;-2.50;96.90
24614;DHT22;12760;46.296;25.290;2023-02-11T09:20:31;-2.60;96.70
24614;DHT22;12760;46.296;25.290;2023-02-11T09:22:58;-2.80;96.60
24614;DHT22;12760;46.296;25.290;2023-02-11T09:25:24;-2.70;97.60
24614;DHT22;12760;46.296;25.290;2023-02-11T09:27:49;-2.50;97.40
24614;DHT22;12760;46.296;25.290;2023-02-11T09:30:17;-2.30;97.10
24614;DHT22;12760;46.296;25.290;2023-02-11T09:32:42;-2.40;96.80
24614;DHT22;12760;46.296;25.290;2023-02-11T09:35:08;-2.30;97.40
24614;DHT22;12760;46.296;25.290;2023-02-11T09:37:34;-2.30;96.90
24614;DHT22;12760;46.296;25.290;2023-02-11T09:40:00;-2.10;97.40
24614;DHT22;12760;46.296;25.290;2023-02-11T09:42:39;-2.00;97.30
24614;DHT22;12760;46.296;25.290;2023-02-11T09:45:21;-1.90;97.30
24614;DHT22;12760;46.296;25.290;2023-02-11T09:47:52;-1.80;97.30
24614;DHT22;12760;46.296;25.290;2023-02-11T09:50:39;-1.60;97.40
24614;DHT22;12760;46.296;25.290;2023-02-11T09:55:44;-1.40;97.40
24614;DHT22;12760;46.296;25.290;2023-02-11T09:58:16;-1.30;97.40
24614;DHT22;12760;46.296;25.290;2023-02-11T10:01:05;-1.20;97.50
24614;DHT22;12760;46.296;25.290;2023-02-11T10:12:25;-0.80;97.50
24614;DHT22;12760;46.296;25.290;2023-02-11T10:23:33;-0.50;97.80
24614;DHT22;12760;46.296;25.290;2023-02-11T10:26:00;-0.50;97.80
24614;DHT22;12760;46.296;25.290;2023-02-11T10:28:33;-0.50;98.10
24614;DHT22;12760;46.296;25.290;2023-02-11T10:31:09;-0.50;98.10
24614;DHT22;12760;46.296;25.290;2023-02-11T10:33:57;-0.50;97.90
24614;DHT22;12760;46.296;25.290;2023-02-11T10:36:28;-0.50;98.10
24614;DHT22;12760;46.296;25.290;2023-02-11T10:38:54;-0.50;97.90
24614;DHT22;12760;46.296;25.290;2023-02-11T10:41:25;-0.50;98.20
24614;DHT22;12760;46.296;25.290;2023-02-11T10:43:52;-0.40;98.70
24614;DHT22;12760;46.296;25.290;2023-02-11T10:46:23;-0.20;98.50
24614;DHT22;12760;46.296;25.290;2023-02-11T10:48:52;-0.20;99.00
24614;DHT22;12760;46.296;25.290;2023-02-11T10:51:29;0.00;98.90
24614;DHT22;12760;46.296;25.290;2023-02-11T10:56:50;0.10;97.70
24614;DHT22;12760;46.296;25.290;2023-02-11T10:59:36;0.10;97.90
24614;DHT22;12760;46.296;25.290;2023-02-11T11:02:22;0.20;98.30
24614;DHT22;12760;46.296;25.290;2023-02-11T11:04:49;0.10;98.00
24614;DHT22;12760;46.296;25.290;2023-02-11T11:07:23;0.20;98.60
24614;DHT22;12760;46.296;25.290;2023-02-11T11:09:57;0.20;98.40
24614;DHT22;12760;46.296;25.290;2023-02-11T11:12:38;0.30;98.60
24614;DHT22;12760;46.296;25.290;2023-02-11T11:17:36;0.30;98.90
24614;DHT22;12760;46.296;25.290;2023-02-11T11:20:24;0.30;98.60
24614;DHT22;12760;46.296;25.290;2023-02-11T11:23:38;0.20;98.20
24614;DHT22;12760;46.296;25.290;2023-02-11T11:25:41;0.30;98.80
24614;DHT22;12760;46.296;25.290;2023-02-11T11:28:25;0.30;98.50
24614;DHT22;12760;46.296;25.290;2023-02-11T11:30:53;0.30;98.50
24614;DHT22;12760;46.296;25.290;2023-02-11T11:33:23;0.30;98.40
24614;DHT22;12760;46.296;25.290;2023-02-11T11:35:57;0.40;98.90
24614;DHT22;12760;46.296;25.290;2023-02-11T11:38:23;0.40;98.50
24614;DHT22;12760;46.296;25.290;2023-02-11T11:41:20;0.40;99.20
24614;DHT22;12760;46.296;25.290;2023-02-11T11:46:44;0.60;98.90
24614;DHT22;12760;46.296;25.290;2023-02-11T11:49:29;0.60;99.10
24614;DHT22;12760;46.296;25.290;2023-02-11T11:55:03;0.70;98.90
24614;DHT22;12760;46.296;25.290;2023-02-11T11:57:36;0.70;98.70
24614;DHT22;12760;46.296;25.290;2023-02-11T12:00:03;0.70;98.60
24614;DHT22;12760;46.296;25.290;2023-02-11T12:16:35;0.50;99.50
24614;DHT22;12760;46.296;25.290;2023-02-11T12:21:55;0.50;99.80
24614;DHT22;12760;46.296;25.290;2023-02-11T12:24:47;0.60;99.80
24614;DHT22;12760;46.296;25.290;2023-02-11T12:27:43;0.50;99.90
24614;DHT22;12760;46.296;25.290;2023-02-11T12:30:18;0.60;99.90
24614;DHT22;12760;46.296;25.290;2023-02-11T12:35:25;0.70;99.80
24614;DHT22;12760;46.296;25.290;2023-02-11T12:38:17;0.60;99.70
24614;DHT22;12760;46.296;25.290;2023-02-11T12:43:37;0.80;99.90
24614;DHT22;12760;46.296;25.290;2023-02-11T12:51:32;0.90;99.70
24614;DHT22;12760;46.296;25.290;2023-02-11T12:54:09;1.00;99.40
24614;DHT22;12760;46.296;25.290;2023-02-11T12:57:02;1.00;99.60
24614;DHT22;12760;46.296;25.290;2023-02-11T13:00:06;1.20;99.20
24614;DHT22;12760;46.296;25.290;2023-02-11T13:08:25;0.90;98.70
24614;DHT22;12760;46.296;25.290;2023-02-11T13:10:54;1.00;98.90
24614;DHT22;12760;46.296;25.290;2023-02-11T13:13:27;1.10;98.90
24614;DHT22;12760;46.296;25.290;2023-02-11T13:16:01;1.20;98.80
24614;DHT22;12760;46.296;25.290;2023-02-11T13:19:47;1.20;98.30
24614;DHT22;12760;46.296;25.290;2023-02-11T13:24:36;1.30;98.20
24614;DHT22;12760;46.296;25.290;2023-02-11T13:30:30;1.40;98.30
24614;DHT22;12760;46.296;25.290;2023-02-11T13:37:57;1.60;97.90
24614;DHT22;12760;46.296;25.290;2023-02-11T13:40:34;1.60;97.80
24614;DHT22;12760;46.296;25.290;2023-02-11T13:43:04;1.60;97.40
24614;DHT22;12760;46.296;25.290;2023-02-11T13:45:34;1.60;98.20
24614;DHT22;12760;46.296;25.290;2023-02-11T13:48:04;1.70;98.20
24614;DHT22;12760;46.296;25.290;2023-02-11T13:50:45;1.70;97.60
24614;DHT22;12760;46.296;25.290;2023-02-11T13:53:13;1.70;97.40
24614;DHT22;12760;46.296;25.290;2023-02-11T13:55:46;1.70;97.80
24614;DHT22;12760;46.296;25.290;2023-02-11T14:09:33;1.60;98.10
24614;DHT22;12760;46.296;25.290;2023-02-11T14:12:32;1.50;98.00
24614;DHT22;12760;46.296;25.290;2023-02-11T14:17:33;1.60;98.40
24614;DHT22;12760;46.296;25.290;2023-02-11T14:20:02;1.60;98.00
24614;DHT22;12760;46.296;25.290;2023-02-11T14:22:47;1.60;97.90
24614;DHT22;12760;46.296;25.290;2023-02-11T14:25:22;1.50;97.70
24614;DHT22;12760;46.296;25.290;2023-02-11T14:27:51;1.50;97.70
24614;DHT22;12760;46.296;25.290;2023-02-11T14:30:37;1.50;97.80
24614;DHT22;12760;46.296;25.290;2023-02-11T14:35:53;1.30;98.00
24614;DHT22;12760;46.296;25.290;2023-02-11T14:41:28;1.30;98.30
24614;DHT22;12760;46.296;25.290;2023-02-11T14:44:08;1.30;98.00
24614;DHT22;12760;46.296;25.290;2023-02-11T14:46:43;1.20;98.10
24614;DHT22;12760;46.296;25.290;2023-02-11T14:49:28;1.10;98.00
24614;DHT22;12760;46.296;25.290;2023-02-11T14:52:06;1.10;97.90
24614;DHT22;12760;46.296;25.290;2023-02-11T14:54:36;1.00;97.50
24614;DHT22;12760;46.296;25.290;2023-02-11T14:59:58;0.90;98.10
24614;DHT22;12760;46.296;25.290;2023-02-11T15:02:28;0.90;98.40
24614;DHT22;12760;46.296;25.290;2023-02-11T15:05:10;0.90;98.30
24614;DHT22;12760;46.296;25.290;2023-02-11T15:07:43;0.80;97.80
24614;DHT22;12760;46.296;25.290;2023-02-11T15:10:36;0.90;98.30
24614;DHT22;12760;46.296;25.290;2023-02-11T15:13:01;0.90;98.60
24614;DHT22;12760;46.296;25.290;2023-02-11T15:15:28;0.90;98.50
24614;DHT22;12760;46.296;25.290;2023-02-11T15:17:58;0.90;98.60
24614;DHT22;12760;46.296;25.290;2023-02-11T15:20:27;0.80;98.50
24614;DHT22;12760;46.296;25.290;2023-02-11T15:22:56;0.80;98.90
24614;DHT22;12760;46.296;25.290;2023-02-11T15:25:23;0.70;98.50
24614;DHT22;12760;46.296;25.290;2023-02-11T15:27:51;0.70;98.80
24614;DHT22;12760;46.296;25.290;2023-02-11T15:33:18;0.70;98.70
24614;DHT22;12760;46.296;25.290;2023-02-11T15:35:39;0.60;99.10
24614;DHT22;12760;46.296;25.290;2023-02-11T15:38:05;0.70;99.00
24614;DHT22;12760;46.296;25.290;2023-02-11T15:40:33;0.60;99.20
24614;DHT22;12760;46.296;25.290;2023-02-11T15:43:05;0.60;99.10
24614;DHT22;12760;46.296;25.290;2023-02-11T15:48:14;0.70;99.00
24614;DHT22;12760;46.296;25.290;2023-02-11T15:50:42;0.70;99.00
24614;DHT22;12760;46.296;25.290;2023-02-11T15:53:24;0.70;99.00
24614;DHT22;12760;46.296;25.290;2023-02-11T15:56:13;0.60;99.20
24614;DHT22;12760;46.296;25.290;2023-02-11T15:58:44;0.60;99.20
24614;DHT22;12760;46.296;25.290;2023-02-11T16:01:12;0.60;99.40
24614;DHT22;12760;46.296;25.290;2023-02-11T16:03:40;0.50;99.20
24614;DHT22;12760;46.296;25.290;2023-02-11T16:06:26;0.40;99.10
24614;DHT22;12760;46.296;25.290;2023-02-11T16:11:30;0.50;99.30
24614;DHT22;12760;46.296;25.290;2023-02-11T16:13:57;0.50;99.50
24614;DHT22;12760;46.296;25.290;2023-02-11T16:16:27;0.60;99.50
24614;DHT22;12760;46.296;25.290;2023-02-11T16:18:56;0.60;99.20
24614;DHT22;12760;46.296;25.290;2023-02-11T16:21:30;0.60;99.40
24614;DHT22;12760;46.296;25.290;2023-02-11T16:23:58;0.60;99.60
24614;DHT22;12760;46.296;25.290;2023-02-11T16:29:21;0.60;99.60
24614;DHT22;12760;46.296;25.290;2023-02-11T16:31:47;0.60;99.30
24614;DHT22;12760;46.296;25.290;2023-02-11T16:34:22;0.60;99.50
24614;DHT22;12760;46.296;25.290;2023-02-11T16:36:49;0.60;99.70
24614;DHT22;12760;46.296;25.290;2023-02-11T16:39:16;0.60;99.70
24614;DHT22;12760;46.296;25.290;2023-02-11T16:41:43;0.60;99.90
24614;DHT22;12760;46.296;25.290;2023-02-11T16:44:08;0.60;99.90
24614;DHT22;12760;46.296;25.290;2023-02-11T16:46:35;0.60;99.80
24614;DHT22;12760;46.296;25.290;2023-02-11T16:51:44;0.60;99.90
24614;DHT22;12760;46.296;25.290;2023-02-11T16:54:13;0.60;99.90
24614;DHT22;12760;46.296;25.290;2023-02-11T16:56:39;0.60;99.80
24614;DHT22;12760;46.296;25.290;2023-02-11T16:59:05;0.50;99.90
24614;DHT22;12760;46.296;25.290;2023-02-11T17:01:31;0.50;99.90
24614;DHT22;12760;46.296;25.290;2023-02-11T17:03:57;0.50;99.90
24614;DHT22;12760;46.296;25.290;2023-02-11T17:06:23;0.40;99.90
24614;DHT22;12760;46.296;25.290;2023-02-11T17:08:49;0.40;99.90
24614;DHT22;12760;46.296;25.290;2023-02-11T17:11:15;0.40;99.90
24614;DHT22;12760;46.296;25.290;2023-02-11T17:13:42;0.40;99.90
24614;DHT22;12760;46.296;25.290;2023-02-11T17:16:17;0.50;99.90
24614;DHT22;12760;46.296;25.290;2023-02-11T17:18:43;0.50;99.90
24614;DHT22;12760;46.296;25.290;2023-02-11T17:21:09;0.50;99.90
24614;DHT22;12760;46.296;25.290;2023-02-11T17:23:34;0.50;99.90
24614;DHT22;12760;46.296;25.290;2023-02-11T17:26:00;0.50;99.90
24614;DHT22;12760;46.296;25.290;2023-02-11T17:28:26;0.50;99.90
24614;DHT22;12760;46.296;25.290;2023-02-11T17:30:51;0.50;99.90
24614;DHT22;12760;46.296;25.290;2023-02-11T17:33:17;0.50;99.90
24614;DHT22;12760;46.296;25.290;2023-02-11T17:35:45;0.40;99.90
24614;DHT22;12760;46.296;25.290;2023-02-11T17:38:11;0.50;99.90
24614;DHT22;12760;46.296;25.290;2023-02-11T17:40:37;0.40;99.90
24614;DHT22;12760;46.296;25.290;2023-02-11T17:43:03;0.50;99.90
24614;DHT22;12760;46.296;25.290;2023-02-11T17:45:29;0.50;99.90
24614;DHT22;12760;46.296;25.290;2023-02-11T17:47:54;0.50;99.90
24614;DHT22;12760;46.296;25.290;2023-02-11T17:50:20;0.50;99.90
24614;DHT22;12760;46.296;25.290;2023-02-11T17:52:46;0.50;99.90
24614;DHT22;12760;46.296;25.290;2023-02-11T17:55:11;0.50;99.90
24614;DHT22;12760;46.296;25.290;2023-02-11T17:57:37;0.50;99.90